Yuma, AZ

7:00 PM MST on April 28, 2017 (GMT -0700)
El Pueblocito | | Change Station
Active Advisory: Fire Weather Warning

Elev 121 ft 32.70 °N, 114.64 °W | Updated 10 seconds ago

Clear
Clear
81.5 °F
Feels Like 79 °F
N
10.4
Wind Variable Wind from North

Today
High -- | Low -- °F
--% Chance of Precip.
Yesterday
High -- | Low -- °F
Precip. -- in
Pressure 29.64 in
Visibility 10.0 miles
Clouds Clear
Heat Index 79 °F
Dew Point 22 °F
Humidity 11%
Rainfall 0.00 in
Snow Depth Not available.
5:54 AM 7:18 PM
Waxing Crescent, 10% visible
METAR KNYL 290157Z AUTO 36009KT 10SM CLR 27/M08 A2965 RMK AO2 SLP035 T02721078
Pressure 29.64 in
Visibility 10.0 miles
Clouds Clear
Heat Index 79 °F
Dew Point 22 °F
Humidity 11%
Rainfall 0.00 in
Snow Depth Not available.
5:54 AM 7:18 PM
Waxing Crescent, 10% visible
METAR KNYL 290157Z AUTO 36009KT 10SM CLR 27/M08 A2965 RMK AO2 SLP035 T02721078

Get Your Daily Forecast Email!

Thanks for signing up!

Be on the lookout for a verification email in your inbox.

You'll start receiving severe weather alerts in your inbox..

×

10-Day Weather Forecast

Almanac

Astronomy

Apr. 28, 2017 Rise Set
Actual Time
Civil Twilight
Nautical Twilight
Astronomical Twilight
Moon
Length of Visible Light
Length of Day
Tomorrow will be .
, % of the Moon is Illuminated

Today's Extremes

State Highs State Lows

Community

WunderPhotos

WunderBlog® & News

Nearby

Air Quality

  Air Quality AQ Index Pollutant
Not available.

Snow Depth

Station Depth Elevation

Earthquake Activity

City Distance Mag. Time & Date
Minimum magnitude displayed is 2.5.

Coastal Water Temperatures

Place Temperature

Stations

Nearby Weather Stations

Station Location Temp. Windchill Dew Point Humidity Wind Precip. Elev Updated Type
                   

Watches & Warnings

Fire Weather Warning
Issued: 2:25 PM PDT Apr. 28, 2017 – National Weather Service

... Red flag warning now in effect until 9 PM MST /9 PM PDT/ this
evening for strong winds, low relative humidity and very high fire
danger for the lower Colorado River valley
... Red flag warning in effect from 10 am MST /10 am PDT/ to 7 PM
MST /7 PM PDT/ Saturday for strong winds, low relative humidity
and very high fire danger...

The National Weather Service in Phoenix has issued a red flag
warning for strong winds, low relative humidity and very high
fire danger, which is in effect from 10 am MST /10 am PDT/ to 7
PM MST /7 PM PDT/ Saturday.

* Affected area... Yuma/Martinez Lake and vicinity/lower Colorado
River valley AZ and lower Colorado River valley CA.

* Winds... north 15 to 25 mph with gusts up to 40 mph.

* Timing... 9am MST/PDT to 4pm MST/PDT

* relative humidity... as low as 7 percent.

* Impacts... fuels are dry and fire danger is very high. These
conditions combined with low relative humidity and strong winds
will lead to widespread hazardous fire weather conditions.


Precautionary/preparedness actions...

Please advise the appropriate officials and fire crews in the
field of this red flag warning.